sensor_id;sensor_type;location;lat;lon;timestamp;P1;durP1;ratioP1;P2;durP2;ratioP2
23728;SDS011;12045;60.214;24.724;2023-04-16T00:01:32;4.47;;;1.80;;
23728;SDS011;12045;60.214;24.724;2023-04-16T00:04:00;4.47;;;2.40;;
23728;SDS011;12045;60.214;24.724;2023-04-16T00:06:28;4.67;;;2.30;;
23728;SDS011;12045;60.214;24.724;2023-04-16T00:08:55;6.83;;;2.60;;
23728;SDS011;12045;60.214;24.724;2023-04-16T00:11:22;5.47;;;2.17;;
23728;SDS011;12045;60.214;24.724;2023-04-16T00:13:50;4.13;;;2.70;;
23728;SDS011;12045;60.214;24.724;2023-04-16T00:16:18;5.27;;;2.27;;
23728;SDS011;12045;60.214;24.724;2023-04-16T00:18:45;6.93;;;2.20;;
23728;SDS011;12045;60.214;24.724;2023-04-16T00:21:13;6.00;;;2.40;;
23728;SDS011;12045;60.214;24.724;2023-04-16T00:23:40;6.77;;;2.17;;
23728;SDS011;12045;60.214;24.724;2023-04-16T00:26:08;3.33;;;2.17;;
23728;SDS011;12045;60.214;24.724;2023-04-16T00:28:35;5.13;;;2.10;;
23728;SDS011;12045;60.214;24.724;2023-04-16T00:31:03;4.97;;;2.47;;
23728;SDS011;12045;60.214;24.724;2023-04-16T00:33:30;3.70;;;2.30;;
23728;SDS011;12045;60.214;24.724;2023-04-16T00:35:58;4.47;;;2.40;;
23728;SDS011;12045;60.214;24.724;2023-04-16T00:38:25;10.53;;;2.50;;
23728;SDS011;12045;60.214;24.724;2023-04-16T00:40:56;4.43;;;2.47;;
23728;SDS011;12045;60.214;24.724;2023-04-16T00:43:25;5.63;;;2.40;;
23728;SDS011;12045;60.214;24.724;2023-04-16T00:45:53;4.03;;;2.50;;
23728;SDS011;12045;60.214;24.724;2023-04-16T00:48:22;5.00;;;2.30;;
23728;SDS011;12045;60.214;24.724;2023-04-16T00:50:53;6.80;;;2.07;;
23728;SDS011;12045;60.214;24.724;2023-04-16T00:53:21;5.77;;;2.30;;
23728;SDS011;12045;60.214;24.724;2023-04-16T00:55:49;3.23;;;2.10;;
23728;SDS011;12045;60.214;24.724;2023-04-16T00:58:17;3.30;;;2.00;;
23728;SDS011;12045;60.214;24.724;2023-04-16T01:00:45;3.13;;;2.30;;
23728;SDS011;12045;60.214;24.724;2023-04-16T01:03:12;5.23;;;2.63;;
23728;SDS011;12045;60.214;24.724;2023-04-16T01:05:41;3.73;;;2.10;;
23728;SDS011;12045;60.214;24.724;2023-04-16T01:08:16;4.67;;;2.50;;
23728;SDS011;12045;60.214;24.724;2023-04-16T01:10:44;5.57;;;2.17;;
23728;SDS011;12045;60.214;24.724;2023-04-16T01:13:12;4.73;;;2.40;;
23728;SDS011;12045;60.214;24.724;2023-04-16T01:15:40;5.83;;;2.17;;
23728;SDS011;12045;60.214;24.724;2023-04-16T01:18:17;7.23;;;2.50;;
23728;SDS011;12045;60.214;24.724;2023-04-16T01:20:46;6.33;;;2.33;;
23728;SDS011;12045;60.214;24.724;2023-04-16T01:23:15;5.43;;;2.17;;
23728;SDS011;12045;60.214;24.724;2023-04-16T01:25:44;6.73;;;2.40;;
23728;SDS011;12045;60.214;24.724;2023-04-16T01:28:12;5.10;;;2.30;;
23728;SDS011;12045;60.214;24.724;2023-04-16T01:30:40;5.23;;;2.10;;
23728;SDS011;12045;60.214;24.724;2023-04-16T01:33:11;4.67;;;2.57;;
23728;SDS011;12045;60.214;24.724;2023-04-16T01:35:39;2.53;;;2.00;;
23728;SDS011;12045;60.214;24.724;2023-04-16T01:38:07;5.90;;;2.37;;
23728;SDS011;12045;60.214;24.724;2023-04-16T01:40:35;4.57;;;2.30;;
23728;SDS011;12045;60.214;24.724;2023-04-16T01:43:03;3.33;;;1.90;;
23728;SDS011;12045;60.214;24.724;2023-04-16T01:45:33;3.53;;;2.00;;
23728;SDS011;12045;60.214;24.724;2023-04-16T01:48:01;7.47;;;2.50;;
23728;SDS011;12045;60.214;24.724;2023-04-16T01:50:30;3.27;;;2.30;;
23728;SDS011;12045;60.214;24.724;2023-04-16T01:52:58;6.33;;;2.60;;
23728;SDS011;12045;60.214;24.724;2023-04-16T01:55:25;6.67;;;2.30;;
23728;SDS011;12045;60.214;24.724;2023-04-16T01:57:52;3.20;;;2.10;;
23728;SDS011;12045;60.214;24.724;2023-04-16T02:00:20;3.97;;;2.07;;
23728;SDS011;12045;60.214;24.724;2023-04-16T02:02:47;3.13;;;2.30;;
23728;SDS011;12045;60.214;24.724;2023-04-16T02:05:15;4.13;;;2.30;;
23728;SDS011;12045;60.214;24.724;2023-04-16T02:07:42;1.73;;;1.40;;
23728;SDS011;12045;60.214;24.724;2023-04-16T02:10:10;5.50;;;2.37;;
23728;SDS011;12045;60.214;24.724;2023-04-16T02:12:37;3.93;;;2.27;;
23728;SDS011;12045;60.214;24.724;2023-04-16T02:15:05;5.50;;;2.27;;
23728;SDS011;12045;60.214;24.724;2023-04-16T02:17:33;4.90;;;2.67;;
23728;SDS011;12045;60.214;24.724;2023-04-16T02:20:00;3.73;;;2.37;;
23728;SDS011;12045;60.214;24.724;2023-04-16T02:22:31;4.50;;;2.50;;
23728;SDS011;12045;60.214;24.724;2023-04-16T02:24:58;6.07;;;2.60;;
23728;SDS011;12045;60.214;24.724;2023-04-16T02:27:26;6.13;;;2.10;;
23728;SDS011;12045;60.214;24.724;2023-04-16T02:29:53;4.07;;;2.27;;
23728;SDS011;12045;60.214;24.724;2023-04-16T02:32:21;4.17;;;2.00;;
23728;SDS011;12045;60.214;24.724;2023-04-16T02:34:49;2.93;;;2.20;;
23728;SDS011;12045;60.214;24.724;2023-04-16T02:37:16;4.67;;;2.60;;
23728;SDS011;12045;60.214;24.724;2023-04-16T02:39:44;5.73;;;2.60;;
23728;SDS011;12045;60.214;24.724;2023-04-16T02:42:13;3.50;;;2.50;;
23728;SDS011;12045;60.214;24.724;2023-04-16T02:44:40;4.70;;;2.63;;
23728;SDS011;12045;60.214;24.724;2023-04-16T02:47:08;5.87;;;2.90;;
23728;SDS011;12045;60.214;24.724;2023-04-16T02:49:35;3.63;;;2.20;;
23728;SDS011;12045;60.214;24.724;2023-04-16T02:52:03;4.07;;;2.07;;
23728;SDS011;12045;60.214;24.724;2023-04-16T02:54:30;3.87;;;2.17;;
23728;SDS011;12045;60.214;24.724;2023-04-16T02:56:58;5.03;;;2.60;;
23728;SDS011;12045;60.214;24.724;2023-04-16T02:59:25;3.87;;;2.63;;
23728;SDS011;12045;60.214;24.724;2023-04-16T03:01:52;3.20;;;2.30;;
23728;SDS011;12045;60.214;24.724;2023-04-16T03:04:20;5.70;;;2.70;;
23728;SDS011;12045;60.214;24.724;2023-04-16T03:06:48;4.60;;;2.47;;
23728;SDS011;12045;60.214;24.724;2023-04-16T03:09:15;5.57;;;2.83;;
23728;SDS011;12045;60.214;24.724;2023-04-16T03:11:43;5.07;;;2.50;;
23728;SDS011;12045;60.214;24.724;2023-04-16T03:14:10;4.03;;;2.27;;
23728;SDS011;12045;60.214;24.724;2023-04-16T03:16:38;5.17;;;2.93;;
23728;SDS011;12045;60.214;24.724;2023-04-16T03:19:05;9.47;;;2.23;;
23728;SDS011;12045;60.214;24.724;2023-04-16T03:21:33;5.53;;;2.50;;
23728;SDS011;12045;60.214;24.724;2023-04-16T03:24:00;4.20;;;2.47;;
23728;SDS011;12045;60.214;24.724;2023-04-16T03:26:28;5.17;;;2.43;;
23728;SDS011;12045;60.214;24.724;2023-04-16T03:28:55;7.77;;;2.83;;
23728;SDS011;12045;60.214;24.724;2023-04-16T03:31:23;6.43;;;2.60;;
23728;SDS011;12045;60.214;24.724;2023-04-16T03:33:51;4.63;;;2.40;;
23728;SDS011;12045;60.214;24.724;2023-04-16T03:36:18;6.50;;;2.87;;
23728;SDS011;12045;60.214;24.724;2023-04-16T03:38:46;7.60;;;2.50;;
23728;SDS011;12045;60.214;24.724;2023-04-16T03:41:14;3.50;;;2.57;;
23728;SDS011;12045;60.214;24.724;2023-04-16T03:43:41;4.50;;;2.10;;
23728;SDS011;12045;60.214;24.724;2023-04-16T03:46:09;5.30;;;3.10;;
23728;SDS011;12045;60.214;24.724;2023-04-16T03:48:37;4.03;;;2.43;;
23728;SDS011;12045;60.214;24.724;2023-04-16T03:51:04;3.87;;;2.70;;
23728;SDS011;12045;60.214;24.724;2023-04-16T03:53:32;5.00;;;2.90;;
23728;SDS011;12045;60.214;24.724;2023-04-16T03:55:59;4.93;;;2.37;;
23728;SDS011;12045;60.214;24.724;2023-04-16T03:58:27;7.27;;;2.83;;
23728;SDS011;12045;60.214;24.724;2023-04-16T04:00:54;6.87;;;2.73;;
23728;SDS011;12045;60.214;24.724;2023-04-16T04:03:22;6.97;;;2.60;;
23728;SDS011;12045;60.214;24.724;2023-04-16T04:05:50;5.27;;;2.53;;
23728;SDS011;12045;60.214;24.724;2023-04-16T04:08:17;3.63;;;2.40;;
23728;SDS011;12045;60.214;24.724;2023-04-16T04:10:45;5.17;;;2.47;;
23728;SDS011;12045;60.214;24.724;2023-04-16T04:13:13;4.40;;;2.63;;
23728;SDS011;12045;60.214;24.724;2023-04-16T04:15:40;4.40;;;2.67;;
23728;SDS011;12045;60.214;24.724;2023-04-16T04:18:08;5.93;;;2.70;;
23728;SDS011;12045;60.214;24.724;2023-04-16T04:20:39;6.00;;;2.47;;
23728;SDS011;12045;60.214;24.724;2023-04-16T04:23:07;4.47;;;2.40;;
23728;SDS011;12045;60.214;24.724;2023-04-16T04:25:35;7.40;;;2.47;;
23728;SDS011;12045;60.214;24.724;2023-04-16T04:28:02;4.93;;;2.50;;
23728;SDS011;12045;60.214;24.724;2023-04-16T04:30:30;4.07;;;2.83;;
23728;SDS011;12045;60.214;24.724;2023-04-16T04:32:57;5.17;;;2.80;;
23728;SDS011;12045;60.214;24.724;2023-04-16T04:35:25;7.23;;;3.20;;
23728;SDS011;12045;60.214;24.724;2023-04-16T04:37:52;8.63;;;3.17;;
23728;SDS011;12045;60.214;24.724;2023-04-16T04:40:20;4.03;;;2.40;;
23728;SDS011;12045;60.214;24.724;2023-04-16T04:42:47;5.70;;;3.07;;
23728;SDS011;12045;60.214;24.724;2023-04-16T04:45:14;4.90;;;3.07;;
23728;SDS011;12045;60.214;24.724;2023-04-16T04:47:42;5.97;;;2.90;;
23728;SDS011;12045;60.214;24.724;2023-04-16T04:50:10;6.17;;;3.20;;
23728;SDS011;12045;60.214;24.724;2023-04-16T04:52:37;9.90;;;2.87;;
23728;SDS011;12045;60.214;24.724;2023-04-16T04:55:05;5.30;;;2.87;;
23728;SDS011;12045;60.214;24.724;2023-04-16T04:57:33;5.97;;;3.00;;
23728;SDS011;12045;60.214;24.724;2023-04-16T05:00:00;7.27;;;3.00;;
23728;SDS011;12045;60.214;24.724;2023-04-16T05:02:30;4.57;;;2.90;;
23728;SDS011;12045;60.214;24.724;2023-04-16T05:04:59;6.83;;;3.03;;
23728;SDS011;12045;60.214;24.724;2023-04-16T05:07:27;8.53;;;2.90;;
23728;SDS011;12045;60.214;24.724;2023-04-16T05:09:54;4.77;;;2.57;;
23728;SDS011;12045;60.214;24.724;2023-04-16T05:12:22;5.37;;;2.93;;
23728;SDS011;12045;60.214;24.724;2023-04-16T05:14:50;6.63;;;3.03;;
23728;SDS011;12045;60.214;24.724;2023-04-16T05:17:17;8.97;;;2.97;;
23728;SDS011;12045;60.214;24.724;2023-04-16T05:19:45;6.17;;;3.17;;
23728;SDS011;12045;60.214;24.724;2023-04-16T05:22:12;5.57;;;2.90;;
23728;SDS011;12045;60.214;24.724;2023-04-16T05:24:40;6.43;;;3.03;;
23728;SDS011;12045;60.214;24.724;2023-04-16T05:27:07;8.80;;;3.20;;
23728;SDS011;12045;60.214;24.724;2023-04-16T05:29:34;5.93;;;3.00;;
23728;SDS011;12045;60.214;24.724;2023-04-16T05:32:02;4.43;;;2.80;;
23728;SDS011;12045;60.214;24.724;2023-04-16T05:34:30;4.25;;;2.60;;
23728;SDS011;12045;60.214;24.724;2023-04-16T05:36:57;5.57;;;3.42;;
23728;SDS011;12045;60.214;24.724;2023-04-16T05:39:24;8.15;;;3.10;;
23728;SDS011;12045;60.214;24.724;2023-04-16T05:41:52;6.90;;;2.93;;
23728;SDS011;12045;60.214;24.724;2023-04-16T05:44:21;10.48;;;3.25;;
23728;SDS011;12045;60.214;24.724;2023-04-16T05:46:48;7.57;;;3.22;;
23728;SDS011;12045;60.214;24.724;2023-04-16T05:49:16;7.22;;;3.00;;
23728;SDS011;12045;60.214;24.724;2023-04-16T05:51:47;4.72;;;2.95;;
23728;SDS011;12045;60.214;24.724;2023-04-16T05:54:16;4.85;;;3.20;;
23728;SDS011;12045;60.214;24.724;2023-04-16T05:56:44;6.97;;;2.90;;
23728;SDS011;12045;60.214;24.724;2023-04-16T05:59:11;7.43;;;3.30;;
23728;SDS011;12045;60.214;24.724;2023-04-16T06:01:39;5.22;;;3.00;;
23728;SDS011;12045;60.214;24.724;2023-04-16T06:04:07;6.60;;;2.92;;
23728;SDS011;12045;60.214;24.724;2023-04-16T06:06:34;4.90;;;3.10;;
23728;SDS011;12045;60.214;24.724;2023-04-16T06:09:03;7.50;;;3.38;;
23728;SDS011;12045;60.214;24.724;2023-04-16T06:11:30;8.35;;;3.20;;
23728;SDS011;12045;60.214;24.724;2023-04-16T06:14:00;5.70;;;3.10;;
23728;SDS011;12045;60.214;24.724;2023-04-16T06:16:28;5.63;;;3.30;;
23728;SDS011;12045;60.214;24.724;2023-04-16T06:18:55;7.82;;;2.97;;
23728;SDS011;12045;60.214;24.724;2023-04-16T06:21:23;6.00;;;2.90;;
23728;SDS011;12045;60.214;24.724;2023-04-16T06:23:50;7.30;;;3.03;;
23728;SDS011;12045;60.214;24.724;2023-04-16T06:26:18;6.20;;;3.13;;
23728;SDS011;12045;60.214;24.724;2023-04-16T06:28:45;6.07;;;2.90;;
23728;SDS011;12045;60.214;24.724;2023-04-16T06:31:13;5.35;;;2.90;;
23728;SDS011;12045;60.214;24.724;2023-04-16T06:33:40;7.45;;;3.42;;
23728;SDS011;12045;60.214;24.724;2023-04-16T06:36:08;5.60;;;2.88;;
23728;SDS011;12045;60.214;24.724;2023-04-16T06:38:37;11.77;;;3.53;;
23728;SDS011;12045;60.214;24.724;2023-04-16T06:41:04;7.25;;;3.42;;
23728;SDS011;12045;60.214;24.724;2023-04-16T06:43:32;7.03;;;3.00;;
23728;SDS011;12045;60.214;24.724;2023-04-16T06:45:59;8.32;;;3.30;;
23728;SDS011;12045;60.214;24.724;2023-04-16T06:48:27;8.30;;;3.15;;
23728;SDS011;12045;60.214;24.724;2023-04-16T06:50:56;5.78;;;2.97;;
23728;SDS011;12045;60.214;24.724;2023-04-16T06:53:24;8.93;;;3.13;;
23728;SDS011;12045;60.214;24.724;2023-04-16T06:55:51;6.35;;;2.97;;
23728;SDS011;12045;60.214;24.724;2023-04-16T06:58:19;5.25;;;2.80;;
23728;SDS011;12045;60.214;24.724;2023-04-16T07:00:48;5.35;;;2.88;;
23728;SDS011;12045;60.214;24.724;2023-04-16T07:03:16;6.47;;;2.97;;
23728;SDS011;12045;60.214;24.724;2023-04-16T07:05:44;7.78;;;3.17;;
23728;SDS011;12045;60.214;24.724;2023-04-16T07:08:12;7.18;;;3.17;;
23728;SDS011;12045;60.214;24.724;2023-04-16T07:10:40;7.65;;;3.00;;
23728;SDS011;12045;60.214;24.724;2023-04-16T07:13:07;6.55;;;3.30;;
23728;SDS011;12045;60.214;24.724;2023-04-16T07:15:35;11.52;;;3.13;;
23728;SDS011;12045;60.214;24.724;2023-04-16T07:18:02;5.72;;;3.08;;
23728;SDS011;12045;60.214;24.724;2023-04-16T07:20:30;8.55;;;3.45;;
23728;SDS011;12045;60.214;24.724;2023-04-16T07:22:57;10.23;;;3.03;;
23728;SDS011;12045;60.214;24.724;2023-04-16T07:25:25;7.32;;;3.10;;
23728;SDS011;12045;60.214;24.724;2023-04-16T07:27:52;7.18;;;3.10;;
23728;SDS011;12045;60.214;24.724;2023-04-16T07:30:20;5.63;;;2.83;;
23728;SDS011;12045;60.214;24.724;2023-04-16T07:32:47;6.82;;;3.00;;
23728;SDS011;12045;60.214;24.724;2023-04-16T07:35:15;5.32;;;3.08;;
23728;SDS011;12045;60.214;24.724;2023-04-16T07:37:42;7.60;;;3.20;;
23728;SDS011;12045;60.214;24.724;2023-04-16T07:40:10;6.25;;;3.20;;
23728;SDS011;12045;60.214;24.724;2023-04-16T07:42:37;6.45;;;3.22;;
23728;SDS011;12045;60.214;24.724;2023-04-16T07:45:05;6.55;;;3.35;;
23728;SDS011;12045;60.214;24.724;2023-04-16T07:47:33;4.55;;;2.92;;
23728;SDS011;12045;60.214;24.724;2023-04-16T07:50:00;6.68;;;3.10;;
23728;SDS011;12045;60.214;24.724;2023-04-16T07:52:28;7.32;;;2.72;;
23728;SDS011;12045;60.214;24.724;2023-04-16T07:54:55;10.23;;;3.13;;
23728;SDS011;12045;60.214;24.724;2023-04-16T07:57:23;10.23;;;3.20;;
23728;SDS011;12045;60.214;24.724;2023-04-16T07:59:51;7.05;;;2.95;;
23728;SDS011;12045;60.214;24.724;2023-04-16T08:02:18;7.45;;;2.90;;
23728;SDS011;12045;60.214;24.724;2023-04-16T08:04:46;6.80;;;3.20;;
23728;SDS011;12045;60.214;24.724;2023-04-16T08:07:14;7.97;;;3.30;;
23728;SDS011;12045;60.214;24.724;2023-04-16T08:09:49;9.18;;;3.63;;
23728;SDS011;12045;60.214;24.724;2023-04-16T08:12:17;7.78;;;2.92;;
23728;SDS011;12045;60.214;24.724;2023-04-16T08:14:45;6.07;;;2.80;;
23728;SDS011;12045;60.214;24.724;2023-04-16T08:17:13;7.40;;;3.05;;
23728;SDS011;12045;60.214;24.724;2023-04-16T08:19:42;4.50;;;2.60;;
23728;SDS011;12045;60.214;24.724;2023-04-16T08:22:12;7.78;;;3.22;;
23728;SDS011;12045;60.214;24.724;2023-04-16T08:24:41;7.97;;;3.20;;
23728;SDS011;12045;60.214;24.724;2023-04-16T08:27:08;9.10;;;3.30;;
23728;SDS011;12045;60.214;24.724;2023-04-16T08:29:46;7.72;;;3.40;;
23728;SDS011;12045;60.214;24.724;2023-04-16T08:32:13;5.32;;;2.72;;
23728;SDS011;12045;60.214;24.724;2023-04-16T08:34:41;8.00;;;2.92;;
23728;SDS011;12045;60.214;24.724;2023-04-16T08:37:09;8.63;;;3.17;;
23728;SDS011;12045;60.214;24.724;2023-04-16T08:39:36;7.85;;;2.80;;
23728;SDS011;12045;60.214;24.724;2023-04-16T08:42:04;6.50;;;3.00;;
23728;SDS011;12045;60.214;24.724;2023-04-16T08:44:36;7.28;;;3.25;;
23728;SDS011;12045;60.214;24.724;2023-04-16T08:47:09;6.63;;;2.92;;
23728;SDS011;12045;60.214;24.724;2023-04-16T08:49:42;5.20;;;2.92;;
23728;SDS011;12045;60.214;24.724;2023-04-16T08:52:17;7.78;;;3.17;;
23728;SDS011;12045;60.214;24.724;2023-04-16T08:55:11;6.03;;;3.17;;
23728;SDS011;12045;60.214;24.724;2023-04-16T08:57:43;7.38;;;3.30;;
23728;SDS011;12045;60.214;24.724;2023-04-16T09:00:16;7.18;;;3.17;;
23728;SDS011;12045;60.214;24.724;2023-04-16T09:02:44;5.53;;;3.15;;
23728;SDS011;12045;60.214;24.724;2023-04-16T09:05:13;7.10;;;3.10;;
23728;SDS011;12045;60.214;24.724;2023-04-16T09:07:47;5.43;;;3.20;;
23728;SDS011;12045;60.214;24.724;2023-04-16T09:10:14;5.55;;;2.90;;
23728;SDS011;12045;60.214;24.724;2023-04-16T09:12:43;5.30;;;3.17;;
23728;SDS011;12045;60.214;24.724;2023-04-16T09:15:11;10.35;;;3.40;;
23728;SDS011;12045;60.214;24.724;2023-04-16T09:17:39;11.00;;;3.40;;
23728;SDS011;12045;60.214;24.724;2023-04-16T09:20:08;5.15;;;3.20;;
23728;SDS011;12045;60.214;24.724;2023-04-16T09:22:36;7.00;;;3.40;;
23728;SDS011;12045;60.214;24.724;2023-04-16T09:25:06;4.55;;;2.80;;
23728;SDS011;12045;60.214;24.724;2023-04-16T09:27:34;7.22;;;3.28;;
23728;SDS011;12045;60.214;24.724;2023-04-16T09:30:24;6.30;;;3.40;;
23728;SDS011;12045;60.214;24.724;2023-04-16T09:33:11;6.45;;;3.03;;
23728;SDS011;12045;60.214;24.724;2023-04-16T09:35:50;8.05;;;3.15;;
23728;SDS011;12045;60.214;24.724;2023-04-16T09:38:19;6.88;;;2.90;;
23728;SDS011;12045;60.214;24.724;2023-04-16T09:40:46;7.68;;;2.92;;
23728;SDS011;12045;60.214;24.724;2023-04-16T09:43:16;9.02;;;3.33;;
23728;SDS011;12045;60.214;24.724;2023-04-16T09:45:51;4.82;;;3.00;;
23728;SDS011;12045;60.214;24.724;2023-04-16T09:48:32;6.13;;;2.97;;
23728;SDS011;12045;60.214;24.724;2023-04-16T09:51:00;7.55;;;3.08;;
23728;SDS011;12045;60.214;24.724;2023-04-16T09:53:28;4.00;;;2.63;;
23728;SDS011;12045;60.214;24.724;2023-04-16T09:58:25;5.78;;;2.97;;
23728;SDS011;12045;60.214;24.724;2023-04-16T10:01:11;7.20;;;2.75;;
23728;SDS011;12045;60.214;24.724;2023-04-16T10:03:39;8.55;;;3.05;;
23728;SDS011;12045;60.214;24.724;2023-04-16T10:06:14;5.28;;;3.00;;
23728;SDS011;12045;60.214;24.724;2023-04-16T10:08:48;8.70;;;3.35;;
23728;SDS011;12045;60.214;24.724;2023-04-16T10:11:16;9.63;;;3.20;;
23728;SDS011;12045;60.214;24.724;2023-04-16T10:13:45;6.18;;;3.00;;
23728;SDS011;12045;60.214;24.724;2023-04-16T10:16:13;8.32;;;2.88;;
23728;SDS011;12045;60.214;24.724;2023-04-16T10:18:41;6.53;;;2.97;;
23728;SDS011;12045;60.214;24.724;2023-04-16T10:21:10;5.25;;;2.72;;
23728;SDS011;12045;60.214;24.724;2023-04-16T10:23:38;7.05;;;2.90;;
23728;SDS011;12045;60.214;24.724;2023-04-16T10:26:07;6.05;;;2.53;;
23728;SDS011;12045;60.214;24.724;2023-04-16T10:28:35;7.43;;;2.92;;
23728;SDS011;12045;60.214;24.724;2023-04-16T10:31:04;6.85;;;3.00;;
23728;SDS011;12045;60.214;24.724;2023-04-16T10:33:34;8.63;;;2.92;;
23728;SDS011;12045;60.214;24.724;2023-04-16T10:38:39;9.57;;;2.80;;
23728;SDS011;12045;60.214;24.724;2023-04-16T10:41:13;11.50;;;3.22;;
23728;SDS011;12045;60.214;24.724;2023-04-16T10:43:51;6.75;;;2.45;;
23728;SDS011;12045;60.214;24.724;2023-04-16T10:46:32;6.10;;;2.92;;
23728;SDS011;12045;60.214;24.724;2023-04-16T10:49:00;6.90;;;2.53;;
23728;SDS011;12045;60.214;24.724;2023-04-16T10:51:30;10.10;;;3.30;;
23728;SDS011;12045;60.214;24.724;2023-04-16T10:56:40;7.18;;;2.67;;
23728;SDS011;12045;60.214;24.724;2023-04-16T10:59:10;5.93;;;3.03;;
23728;SDS011;12045;60.214;24.724;2023-04-16T11:01:42;5.70;;;2.83;;
23728;SDS011;12045;60.214;24.724;2023-04-16T11:07:07;4.80;;;2.70;;
23728;SDS011;12045;60.214;24.724;2023-04-16T11:09:55;4.80;;;2.40;;
23728;SDS011;12045;60.214;24.724;2023-04-16T11:15:05;5.60;;;2.58;;
23728;SDS011;12045;60.214;24.724;2023-04-16T11:17:44;4.15;;;2.50;;
23728;SDS011;12045;60.214;24.724;2023-04-16T11:20:17;5.10;;;2.83;;
23728;SDS011;12045;60.214;24.724;2023-04-16T11:22:47;5.03;;;2.50;;
23728;SDS011;12045;60.214;24.724;2023-04-16T11:25:19;7.28;;;2.60;;
23728;SDS011;12045;60.214;24.724;2023-04-16T11:27:48;5.70;;;2.70;;
23728;SDS011;12045;60.214;24.724;2023-04-16T11:30:17;5.43;;;3.08;;
23728;SDS011;12045;60.214;24.724;2023-04-16T11:32:53;6.13;;;2.72;;
23728;SDS011;12045;60.214;24.724;2023-04-16T11:35:21;4.88;;;2.50;;
23728;SDS011;12045;60.214;24.724;2023-04-16T11:37:48;4.93;;;2.50;;
23728;SDS011;12045;60.214;24.724;2023-04-16T11:40:21;9.38;;;2.60;;
23728;SDS011;12045;60.214;24.724;2023-04-16T11:42:48;8.50;;;3.05;;
23728;SDS011;12045;60.214;24.724;2023-04-16T11:45:16;5.63;;;2.40;;
23728;SDS011;12045;60.214;24.724;2023-04-16T11:47:49;4.55;;;2.67;;
23728;SDS011;12045;60.214;24.724;2023-04-16T11:50:21;4.72;;;2.50;;
23728;SDS011;12045;60.214;24.724;2023-04-16T11:52:54;4.38;;;2.60;;
23728;SDS011;12045;60.214;24.724;2023-04-16T11:55:23;5.53;;;2.50;;
23728;SDS011;12045;60.214;24.724;2023-04-16T11:57:52;4.32;;;2.40;;
23728;SDS011;12045;60.214;24.724;2023-04-16T12:00:20;8.00;;;2.53;;
23728;SDS011;12045;60.214;24.724;2023-04-16T12:02:51;3.42;;;2.10;;
23728;SDS011;12045;60.214;24.724;2023-04-16T12:05:26;3.78;;;2.65;;
23728;SDS011;12045;60.214;24.724;2023-04-16T12:07:57;7.25;;;2.42;;
23728;SDS011;12045;60.214;24.724;2023-04-16T12:10:25;7.75;;;2.58;;
23728;SDS011;12045;60.214;24.724;2023-04-16T12:12:54;5.07;;;2.40;;
23728;SDS011;12045;60.214;24.724;2023-04-16T12:15:49;4.60;;;2.22;;
23728;SDS011;12045;60.214;24.724;2023-04-16T12:18:19;6.32;;;2.63;;
23728;SDS011;12045;60.214;24.724;2023-04-16T12:20:48;3.13;;;2.53;;
23728;SDS011;12045;60.214;24.724;2023-04-16T12:23:23;3.30;;;2.25;;
23728;SDS011;12045;60.214;24.724;2023-04-16T12:25:55;5.80;;;2.38;;
23728;SDS011;12045;60.214;24.724;2023-04-16T12:28:32;4.40;;;2.58;;
23728;SDS011;12045;60.214;24.724;2023-04-16T12:31:02;5.15;;;2.25;;
23728;SDS011;12045;60.214;24.724;2023-04-16T12:33:30;6.63;;;2.40;;
23728;SDS011;12045;60.214;24.724;2023-04-16T12:35:58;3.55;;;2.17;;
23728;SDS011;12045;60.214;24.724;2023-04-16T12:38:27;4.28;;;2.38;;
23728;SDS011;12045;60.214;24.724;2023-04-16T12:40:54;7.78;;;2.60;;
23728;SDS011;12045;60.214;24.724;2023-04-16T12:43:23;3.65;;;2.60;;
23728;SDS011;12045;60.214;24.724;2023-04-16T12:45:51;4.80;;;2.70;;
23728;SDS011;12045;60.214;24.724;2023-04-16T12:48:20;6.15;;;2.40;;
23728;SDS011;12045;60.214;24.724;2023-04-16T12:50:48;8.85;;;2.95;;
23728;SDS011;12045;60.214;24.724;2023-04-16T12:53:16;6.50;;;2.72;;
23728;SDS011;12045;60.214;24.724;2023-04-16T12:55:43;6.57;;;2.80;;
23728;SDS011;12045;60.214;24.724;2023-04-16T12:58:11;6.35;;;2.47;;
23728;SDS011;12045;60.214;24.724;2023-04-16T13:00:38;6.95;;;2.75;;
23728;SDS011;12045;60.214;24.724;2023-04-16T13:03:06;6.78;;;3.25;;
23728;SDS011;12045;60.214;24.724;2023-04-16T13:05:34;5.63;;;3.00;;
23728;SDS011;12045;60.214;24.724;2023-04-16T13:08:01;4.57;;;2.60;;
23728;SDS011;12045;60.214;24.724;2023-04-16T13:10:31;6.93;;;2.70;;
23728;SDS011;12045;60.214;24.724;2023-04-16T13:12:58;4.53;;;2.58;;
23728;SDS011;12045;60.214;24.724;2023-04-16T13:15:25;7.65;;;3.10;;
23728;SDS011;12045;60.214;24.724;2023-04-16T13:17:53;5.78;;;3.10;;
23728;SDS011;12045;60.214;24.724;2023-04-16T13:20:21;5.35;;;2.53;;
23728;SDS011;12045;60.214;24.724;2023-04-16T13:22:50;4.68;;;2.88;;
23728;SDS011;12045;60.214;24.724;2023-04-16T13:25:17;5.75;;;3.40;;
23728;SDS011;12045;60.214;24.724;2023-04-16T13:27:45;5.95;;;3.17;;
23728;SDS011;12045;60.214;24.724;2023-04-16T13:30:12;6.28;;;3.08;;
23728;SDS011;12045;60.214;24.724;2023-04-16T13:32:40;8.48;;;3.88;;
23728;SDS011;12045;60.214;24.724;2023-04-16T13:35:09;4.65;;;3.33;;
23728;SDS011;12045;60.214;24.724;2023-04-16T13:37:36;8.13;;;3.47;;
23728;SDS011;12045;60.214;24.724;2023-04-16T13:40:04;5.88;;;3.60;;
23728;SDS011;12045;60.214;24.724;2023-04-16T13:42:32;6.93;;;3.65;;
23728;SDS011;12045;60.214;24.724;2023-04-16T13:45:00;6.22;;;3.53;;
23728;SDS011;12045;60.214;24.724;2023-04-16T13:47:27;6.63;;;3.38;;
23728;SDS011;12045;60.214;24.724;2023-04-16T13:49:55;9.02;;;3.78;;
23728;SDS011;12045;60.214;24.724;2023-04-16T13:52:23;9.13;;;3.95;;
23728;SDS011;12045;60.214;24.724;2023-04-16T13:54:50;5.22;;;3.80;;
23728;SDS011;12045;60.214;24.724;2023-04-16T13:57:18;7.95;;;3.88;;
23728;SDS011;12045;60.214;24.724;2023-04-16T13:59:46;8.30;;;3.90;;
23728;SDS011;12045;60.214;24.724;2023-04-16T14:02:14;8.77;;;3.63;;
23728;SDS011;12045;60.214;24.724;2023-04-16T14:04:42;9.68;;;3.97;;
23728;SDS011;12045;60.214;24.724;2023-04-16T14:07:09;8.05;;;4.90;;
23728;SDS011;12045;60.214;24.724;2023-04-16T14:09:36;7.30;;;3.95;;
23728;SDS011;12045;60.214;24.724;2023-04-16T14:12:04;8.02;;;3.83;;
23728;SDS011;12045;60.214;24.724;2023-04-16T14:14:32;9.40;;;3.70;;
23728;SDS011;12045;60.214;24.724;2023-04-16T14:16:59;8.05;;;4.03;;
23728;SDS011;12045;60.214;24.724;2023-04-16T14:19:29;6.95;;;3.88;;
23728;SDS011;12045;60.214;24.724;2023-04-16T14:21:56;10.38;;;4.20;;
23728;SDS011;12045;60.214;24.724;2023-04-16T14:24:24;6.32;;;3.92;;
23728;SDS011;12045;60.214;24.724;2023-04-16T14:26:51;7.03;;;4.38;;
23728;SDS011;12045;60.214;24.724;2023-04-16T14:29:18;10.75;;;4.78;;
23728;SDS011;12045;60.214;24.724;2023-04-16T14:31:47;7.45;;;4.50;;
23728;SDS011;12045;60.214;24.724;2023-04-16T14:34:16;11.57;;;4.82;;
23728;SDS011;12045;60.214;24.724;2023-04-16T14:36:43;8.00;;;4.05;;
23728;SDS011;12045;60.214;24.724;2023-04-16T14:39:11;6.93;;;4.40;;
23728;SDS011;12045;60.214;24.724;2023-04-16T14:41:39;9.13;;;4.78;;
23728;SDS011;12045;60.214;24.724;2023-04-16T14:44:07;5.68;;;3.95;;
23728;SDS011;12045;60.214;24.724;2023-04-16T14:46:34;9.52;;;4.32;;
23728;SDS011;12045;60.214;24.724;2023-04-16T14:49:01;8.70;;;4.32;;
23728;SDS011;12045;60.214;24.724;2023-04-16T14:51:29;8.10;;;4.03;;
23728;SDS011;12045;60.214;24.724;2023-04-16T14:53:57;8.35;;;4.22;;
23728;SDS011;12045;60.214;24.724;2023-04-16T14:56:25;7.80;;;4.10;;